createdAt,value
2019-04-30T00:01:18.831Z,23.89
2019-04-30T00:03:43.640Z,23.91
2019-04-30T00:06:10.027Z,23.90
2019-04-30T00:08:39.160Z,23.86
2019-04-30T00:11:02.705Z,23.82
2019-04-30T00:13:29.045Z,23.79
2019-04-30T00:15:58.762Z,23.75
2019-04-30T00:18:21.860Z,23.71
2019-04-30T00:20:48.226Z,23.71
2019-04-30T00:23:17.704Z,23.69
2019-04-30T00:25:40.927Z,23.68
2019-04-30T00:28:08.777Z,23.69
2019-04-30T00:30:35.044Z,23.67
2019-04-30T00:33:00.163Z,23.68
2019-04-30T00:35:26.488Z,23.67
2019-04-30T00:37:57.632Z,23.66
2019-04-30T00:40:21.778Z,23.67
2019-04-30T00:42:45.822Z,23.67
2019-04-30T00:45:11.887Z,23.66
2019-04-30T00:47:39.588Z,23.64
2019-04-30T00:50:04.966Z,23.66
2019-04-30T00:52:33.962Z,23.65
2019-04-30T00:55:00.338Z,23.62
2019-04-30T00:57:26.337Z,23.60
2019-04-30T00:59:50.097Z,23.60
2019-04-30T01:02:20.132Z,23.62
2019-04-30T01:04:44.861Z,23.64
2019-04-30T01:07:09.137Z,23.59
2019-04-30T01:09:35.517Z,23.59
2019-04-30T01:12:01.867Z,23.60
2019-04-30T01:14:31.882Z,23.60
2019-04-30T01:16:54.643Z,23.60
2019-04-30T01:19:29.709Z,23.60
2019-04-30T01:21:49.120Z,23.58
2019-04-30T01:24:13.787Z,23.55
2019-04-30T01:26:40.110Z,23.56
2019-04-30T01:31:37.396Z,23.56
2019-04-30T01:33:59.251Z,23.56
2019-04-30T01:36:25.543Z,23.53
2019-04-30T01:38:52.576Z,23.56
2019-04-30T01:41:20.294Z,23.56
2019-04-30T01:43:44.674Z,23.53
2019-04-30T01:46:13.865Z,23.53
2019-04-30T01:48:39.206Z,23.52
2019-04-30T01:51:03.659Z,23.51
2019-04-30T01:53:30.113Z,23.51
2019-04-30T01:55:56.505Z,23.49
2019-04-30T01:58:22.890Z,23.49
2019-04-30T02:00:49.442Z,23.52
2019-04-30T02:03:15.590Z,23.49
2019-04-30T02:05:41.990Z,23.47
2019-04-30T02:08:08.526Z,23.45
2019-04-30T02:10:34.920Z,23.46
2019-04-30T02:13:01.252Z,23.46
2019-04-30T02:15:29.178Z,23.45
2019-04-30T02:17:53.951Z,23.42
2019-04-30T02:20:20.329Z,23.44
2019-04-30T02:22:48.493Z,23.45
2019-04-30T02:25:13.031Z,23.41
2019-04-30T02:27:39.442Z,23.41
2019-04-30T02:30:05.760Z,23.42
2019-04-30T02:32:32.086Z,23.40
2019-04-30T02:34:59.801Z,23.37
2019-04-30T02:37:24.845Z,23.38
2019-04-30T02:39:51.329Z,23.38
2019-04-30T02:42:20.106Z,23.37
2019-04-30T02:44:44.070Z,23.36
2019-04-30T02:47:10.412Z,23.35
2019-04-30T02:49:36.809Z,23.35
2019-04-30T02:52:03.106Z,23.35
2019-04-30T02:54:29.791Z,23.35
2019-04-30T02:56:55.913Z,23.32
2019-04-30T02:59:22.211Z,23.31
2019-04-30T03:01:50.235Z,23.35
2019-04-30T03:06:41.314Z,23.31
2019-04-30T03:09:09.989Z,23.29
2019-04-30T03:11:33.937Z,23.30
2019-04-30T03:14:00.276Z,23.30
2019-04-30T03:16:26.632Z,23.35
2019-04-30T03:18:52.986Z,23.36
2019-04-30T03:21:19.419Z,23.43
2019-04-30T03:23:45.706Z,23.50
2019-04-30T03:28:39.696Z,23.53
2019-04-30T03:31:05.113Z,23.54
2019-04-30T03:33:32.692Z,23.58
2019-04-30T03:36:01.766Z,23.59
2019-04-30T03:38:23.765Z,23.60
2019-04-30T03:40:50.383Z,23.65
2019-04-30T03:43:16.586Z,23.64
2019-04-30T03:45:42.943Z,23.69
2019-04-30T03:48:10.203Z,23.68
2019-04-30T03:50:49.117Z,23.69
2019-04-30T03:53:01.998Z,23.72
2019-04-30T03:55:29.935Z,23.74
2019-04-30T03:57:54.749Z,23.80
2019-04-30T04:00:21.069Z,23.85
2019-04-30T04:02:49.871Z,23.87
2019-04-30T04:05:13.789Z,23.85
2019-04-30T04:07:40.202Z,23.89
2019-04-30T04:10:06.499Z,23.90
2019-04-30T04:12:32.826Z,23.92
2019-04-30T04:15:00.752Z,23.94
2019-04-30T04:17:25.588Z,23.97
2019-04-30T04:19:51.905Z,23.97
2019-04-30T04:22:20.695Z,23.97
2019-04-30T04:24:44.635Z,24.00
2019-04-30T04:27:12.551Z,24.00
2019-04-30T04:29:40.383Z,24.02
2019-04-30T04:32:05.298Z,24.02
2019-04-30T04:34:31.713Z,24.06
2019-04-30T04:37:00.033Z,24.05
2019-04-30T04:39:24.475Z,24.11
2019-04-30T04:41:50.821Z,24.11
2019-04-30T04:44:19.687Z,24.15
2019-04-30T04:46:43.538Z,24.27
2019-04-30T04:49:09.945Z,24.38
2019-04-30T04:51:39.392Z,24.34
2019-04-30T04:54:03.317Z,24.38
2019-04-30T04:56:30.414Z,24.45
2019-04-30T04:58:55.373Z,24.48
2019-04-30T05:03:48.997Z,24.50
2019-04-30T05:06:14.533Z,24.47
2019-04-30T05:08:40.938Z,24.49
2019-04-30T05:11:09.221Z,24.55
2019-04-30T05:13:34.754Z,24.51
2019-04-30T05:16:00.185Z,24.54
2019-04-30T05:18:26.480Z,24.53
2019-04-30T05:20:52.906Z,24.54
2019-04-30T05:23:19.538Z,24.58
2019-04-30T05:25:45.660Z,24.53
2019-04-30T05:28:11.987Z,24.62
2019-04-30T05:30:39.319Z,24.61
2019-04-30T05:33:04.692Z,24.61
2019-04-30T05:35:31.246Z,24.62
2019-04-30T05:37:59.178Z,24.69
2019-04-30T05:40:23.796Z,24.73
2019-04-30T05:42:50.128Z,24.75
2019-04-30T05:45:16.472Z,24.79
2019-04-30T05:47:42.943Z,24.80
2019-04-30T05:50:09.376Z,24.83
2019-04-30T05:52:35.715Z,24.86
2019-04-30T05:55:02.054Z,24.85
2019-04-30T05:57:29.481Z,24.92
2019-04-30T05:59:54.745Z,24.91
2019-04-30T06:02:21.100Z,24.91
2019-04-30T06:04:48.883Z,24.89
2019-04-30T06:07:13.786Z,24.98
2019-04-30T06:09:40.168Z,24.99
2019-04-30T06:12:09.461Z,24.73
2019-04-30T06:14:33.189Z,24.70
2019-04-30T06:16:59.769Z,24.44
2019-04-30T06:21:52.305Z,24.59
2019-04-30T06:24:18.859Z,24.56
2019-04-30T06:26:44.984Z,24.65
2019-04-30T06:29:11.320Z,24.63
2019-04-30T06:31:40.092Z,24.54
2019-04-30T06:34:03.990Z,24.63
2019-04-30T06:36:30.317Z,24.56
2019-04-30T06:38:58.856Z,24.68
2019-04-30T06:41:22.995Z,24.66
2019-04-30T06:43:49.311Z,24.64
2019-04-30T06:46:15.689Z,24.39
2019-04-30T06:48:42.164Z,24.54
2019-04-30T06:51:09.095Z,24.55
2019-04-30T06:53:34.807Z,24.60
2019-04-30T06:56:01.133Z,24.48
2019-04-30T06:58:29.160Z,24.55
2019-04-30T07:00:53.817Z,24.44
2019-04-30T07:03:20.147Z,24.44
2019-04-30T07:05:48.621Z,24.42
2019-04-30T07:08:12.913Z,24.40
2019-04-30T07:10:41.439Z,24.53
2019-04-30T07:13:05.657Z,24.39
2019-04-30T07:15:31.938Z,24.49
2019-04-30T07:17:59.135Z,24.39
2019-04-30T07:20:24.650Z,24.41
2019-04-30T07:22:58.923Z,24.18
2019-04-30T07:25:19.371Z,24.18
2019-04-30T07:27:43.726Z,24.28
2019-04-30T07:35:15.083Z,24.15
2019-04-30T07:37:41.415Z,24.27
2019-04-30T07:40:09.167Z,24.15
2019-04-30T07:42:38.224Z,24.27
2019-04-30T07:45:00.869Z,24.21
2019-04-30T07:47:29.508Z,24.12
2019-04-30T07:49:55.893Z,24.19
2019-04-30T07:52:21.958Z,24.13
2019-04-30T07:54:45.900Z,24.06
2019-04-30T07:57:12.252Z,24.06
2019-04-30T07:59:39.655Z,24.14
2019-04-30T08:02:13.706Z,24.19
2019-04-30T08:04:31.297Z,24.23
2019-04-30T08:09:39.107Z,24.38
2019-04-30T08:11:59.318Z,24.29
2019-04-30T08:14:25.672Z,24.42
2019-04-30T08:16:51.990Z,24.39
2019-04-30T08:19:19.133Z,24.60
2019-04-30T08:21:44.660Z,24.62
2019-04-30T08:24:11.018Z,24.62
2019-04-30T08:26:37.350Z,24.71
2019-04-30T08:29:03.695Z,24.71
2019-04-30T08:31:30.057Z,24.76
2019-04-30T08:33:56.464Z,24.87
2019-04-30T08:36:22.814Z,24.76
2019-04-30T08:38:49.638Z,24.94
2019-04-30T08:41:15.546Z,25.04
2019-04-30T08:43:41.906Z,24.93
2019-04-30T08:46:09.387Z,24.90
2019-04-30T08:48:46.153Z,25.09
2019-04-30T08:51:00.899Z,25.12
2019-04-30T08:53:32.205Z,25.22
2019-04-30T08:55:53.629Z,25.18
2019-04-30T08:58:22.729Z,25.10
2019-04-30T09:00:49.082Z,25.00
2019-04-30T09:03:15.404Z,25.31
2019-04-30T09:05:41.752Z,25.33
2019-04-30T09:10:34.429Z,25.39
2019-04-30T09:13:00.820Z,25.33
2019-04-30T09:15:28.933Z,25.42
2019-04-30T09:18:03.222Z,25.52
2019-04-30T09:20:19.767Z,25.54
2019-04-30T09:22:46.107Z,25.51
2019-04-30T09:25:12.491Z,25.51
2019-04-30T09:27:39.741Z,25.50
2019-04-30T09:30:05.246Z,25.16
2019-04-30T09:32:31.756Z,25.20
2019-04-30T09:34:58.718Z,25.43
2019-04-30T09:37:24.418Z,25.34
2019-04-30T09:39:50.760Z,25.33
2019-04-30T09:42:19.260Z,25.48
2019-04-30T09:44:43.424Z,25.52
2019-04-30T09:47:09.779Z,25.43
2019-04-30T09:49:36.111Z,25.44
2019-04-30T09:54:31.785Z,25.49
2019-04-30T09:56:58.987Z,25.46
2019-04-30T09:59:24.139Z,25.37
2019-04-30T10:01:50.476Z,25.30
2019-04-30T10:04:17.752Z,25.37
2019-04-30T10:06:43.181Z,25.52
2019-04-30T10:09:09.760Z,25.61
2019-04-30T10:11:35.850Z,25.62
2019-04-30T10:14:02.192Z,25.62
2019-04-30T10:16:29.635Z,25.71
2019-04-30T10:18:54.932Z,25.71
2019-04-30T10:21:21.260Z,25.71
2019-04-30T10:23:47.725Z,25.75
2019-04-30T10:26:14.064Z,25.83
2019-04-30T10:28:40.430Z,25.78
2019-04-30T10:31:06.791Z,25.88
2019-04-30T10:33:33.248Z,25.93
2019-04-30T10:38:25.905Z,25.93
2019-04-30T10:40:52.240Z,25.88
2019-04-30T10:43:19.770Z,25.93
2019-04-30T10:45:44.914Z,25.93
2019-04-30T10:48:11.303Z,25.95
2019-04-30T10:50:40.756Z,25.97
2019-04-30T10:53:03.948Z,25.93
2019-04-30T10:55:31.126Z,25.93
2019-04-30T10:57:56.631Z,25.96
2019-04-30T11:00:23.016Z,26.04
2019-04-30T11:02:49.707Z,26.06
2019-04-30T11:05:15.731Z,26.06
2019-04-30T11:07:42.058Z,26.06
2019-04-30T11:10:08.722Z,26.01
2019-04-30T11:12:34.803Z,25.98
2019-04-30T11:15:01.181Z,26.03
2019-04-30T11:17:29.593Z,25.93
2019-04-30T11:19:54.062Z,25.96
2019-04-30T11:22:20.436Z,25.96
2019-04-30T11:24:56.657Z,26.04
2019-04-30T11:27:13.516Z,26.03
2019-04-30T11:29:39.659Z,25.98
2019-04-30T11:32:05.857Z,26.01
2019-04-30T11:34:32.025Z,25.91
2019-04-30T11:36:58.406Z,25.92
2019-04-30T11:39:24.810Z,25.89
2019-04-30T11:41:51.098Z,25.92
2019-04-30T11:44:28.497Z,25.94
2019-04-30T11:46:45.800Z,25.90
2019-04-30T11:49:10.267Z,25.90
2019-04-30T11:51:36.610Z,25.90
2019-04-30T11:54:02.948Z,25.86
2019-04-30T11:56:29.267Z,25.89
2019-04-30T11:58:55.679Z,25.84
2019-04-30T12:01:22.035Z,25.82
2019-04-30T12:03:49.769Z,25.68
2019-04-30T12:06:14.716Z,25.66
2019-04-30T12:08:41.068Z,25.75
2019-04-30T12:11:07.501Z,25.59
2019-04-30T12:13:33.831Z,25.68
2019-04-30T12:16:00.186Z,25.66
2019-04-30T12:18:26.581Z,25.64
2019-04-30T12:20:52.930Z,25.65
2019-04-30T12:23:19.238Z,25.76
2019-04-30T12:25:45.623Z,25.69
2019-04-30T12:28:11.928Z,25.65
2019-04-30T12:30:39.146Z,25.67
2019-04-30T12:33:04.697Z,25.66
2019-04-30T12:35:31.033Z,25.59
2019-04-30T12:40:28.813Z,25.84
2019-04-30T12:42:50.091Z,25.73
2019-04-30T12:45:16.421Z,25.90
2019-04-30T12:47:42.757Z,25.91
2019-04-30T12:50:09.560Z,25.98
2019-04-30T12:52:35.458Z,25.93
2019-04-30T12:55:01.851Z,26.05
2019-04-30T12:57:29.481Z,26.10
2019-04-30T12:59:54.530Z,26.18
2019-04-30T13:02:20.865Z,26.10
2019-04-30T13:04:49.154Z,26.12
2019-04-30T13:07:14.061Z,26.25
2019-04-30T13:09:40.766Z,26.18
2019-04-30T13:12:06.637Z,26.22
2019-04-30T13:14:35.623Z,26.28
2019-04-30T13:16:59.080Z,26.28
2019-04-30T13:19:25.386Z,26.25
2019-04-30T13:24:18.121Z,26.38
2019-04-30T13:26:44.414Z,26.27
2019-04-30T13:29:10.743Z,26.26
2019-04-30T13:31:37.162Z,26.25
2019-04-30T13:34:03.455Z,26.34
2019-04-30T13:36:29.819Z,26.35
2019-04-30T13:38:56.139Z,26.39
2019-04-30T13:41:22.583Z,26.37
2019-04-30T13:43:48.878Z,26.34
2019-04-30T13:46:15.205Z,26.40
2019-04-30T13:48:41.626Z,26.46
2019-04-30T13:51:07.977Z,26.43
2019-04-30T13:53:34.302Z,26.43
2019-04-30T13:56:00.714Z,26.45
2019-04-30T13:58:27.107Z,26.41
2019-04-30T14:00:53.427Z,26.40
2019-04-30T14:03:19.807Z,26.49
2019-04-30T14:05:46.156Z,26.47
2019-04-30T14:08:12.549Z,26.38
2019-04-30T14:10:39.330Z,26.40
2019-04-30T14:13:05.258Z,26.51
2019-04-30T14:15:31.646Z,26.45
2019-04-30T14:20:24.375Z,26.38
2019-04-30T14:22:50.670Z,26.39
2019-04-30T14:25:17.025Z,26.42
2019-04-30T14:27:49.276Z,26.42
2019-04-30T14:30:09.909Z,26.36
2019-04-30T15:34:30.640Z,26.23
2019-04-30T15:36:58.639Z,26.21
2019-04-30T15:39:23.311Z,26.19
2019-04-30T15:41:50.081Z,26.24
2019-04-30T15:44:16.419Z,26.24
2019-04-30T15:46:43.030Z,26.24
2019-04-30T15:49:09.599Z,26.19
2019-04-30T15:51:35.927Z,26.19
2019-04-30T15:54:02.541Z,26.17
2019-04-30T15:56:35.383Z,26.21
2019-04-30T15:58:55.223Z,26.20
2019-04-30T16:01:21.643Z,26.20
2019-04-30T16:03:48.433Z,26.20
2019-04-30T16:06:14.815Z,26.19
2019-04-30T16:08:41.240Z,26.18
2019-04-30T16:11:10.388Z,26.17
2019-04-30T16:13:34.051Z,26.18
2019-04-30T16:16:00.383Z,26.13
2019-04-30T16:18:28.827Z,26.10
2019-04-30T16:57:06.887Z,25.93
2019-04-30T16:59:31.797Z,25.93
2019-04-30T17:02:00.397Z,25.86
2019-04-30T17:04:24.429Z,25.82
2019-04-30T17:06:50.804Z,25.78
2019-04-30T17:09:17.132Z,25.78
2019-04-30T17:11:43.549Z,25.76
2019-04-30T17:14:09.832Z,25.72
2019-04-30T17:16:36.208Z,25.72
2019-04-30T17:19:02.585Z,25.68
2019-04-30T17:21:29.688Z,25.66
2019-04-30T17:23:55.312Z,25.66
2019-04-30T17:26:21.648Z,25.67
2019-04-30T17:28:49.760Z,25.69
2019-04-30T17:31:14.372Z,25.72
2019-04-30T17:33:40.772Z,25.68
2019-04-30T17:36:08.329Z,25.67
2019-04-30T17:38:33.391Z,25.63
2019-04-30T17:40:59.759Z,25.58
2019-04-30T17:43:26.167Z,25.60
2019-04-30T17:45:52.649Z,25.63
2019-04-30T17:48:18.952Z,25.64
2019-04-30T17:50:45.285Z,25.61
2019-04-30T17:53:11.625Z,25.59
2019-04-30T17:55:39.133Z,25.58
2019-04-30T17:58:04.447Z,25.58
2019-04-30T18:00:30.705Z,25.58
2019-04-30T18:02:57.118Z,25.62
2019-04-30T18:05:23.430Z,25.58
2019-04-30T18:07:49.914Z,25.58
2019-04-30T18:10:16.134Z,25.58
2019-04-30T18:12:42.464Z,25.57
2019-04-30T18:15:08.916Z,25.56
2019-04-30T18:17:35.215Z,25.50
2019-04-30T18:20:01.590Z,25.51
2019-04-30T18:22:29.375Z,25.50
2019-04-30T18:24:54.285Z,25.47
2019-04-30T18:27:21.251Z,25.50
2019-04-30T18:29:47.059Z,25.45
2019-04-30T18:32:13.397Z,25.44
2019-04-30T18:34:39.722Z,25.47
2019-04-30T18:37:06.048Z,25.39
2019-04-30T18:39:32.398Z,25.43
2019-04-30T18:41:58.752Z,25.42
2019-04-30T18:44:25.092Z,25.40
2019-04-30T18:46:51.432Z,25.42
2019-04-30T18:49:18.784Z,25.39
2019-04-30T18:51:44.140Z,25.38
2019-04-30T18:54:10.547Z,25.35
2019-04-30T18:56:38.869Z,25.33
2019-04-30T18:59:03.196Z,25.38
2019-04-30T19:01:29.552Z,25.36
2019-04-30T19:03:55.880Z,25.32
2019-04-30T19:06:25.751Z,25.25
2019-04-30T19:11:14.951Z,25.19
2019-04-30T19:13:41.324Z,25.16
2019-04-30T19:16:19.733Z,25.13
2019-04-30T19:18:34.003Z,25.06
2019-04-30T19:21:00.401Z,25.01
2019-04-30T19:23:26.742Z,24.99
2019-04-30T19:25:53.112Z,24.94
2019-04-30T19:28:20.808Z,24.91
2019-04-30T19:30:55.819Z,24.88
2019-04-30T19:33:12.346Z,24.84
2019-04-30T19:35:38.647Z,24.80
2019-04-30T19:38:05.024Z,24.78
2019-04-30T19:40:31.356Z,24.74
2019-04-30T19:42:57.749Z,24.72
2019-04-30T19:45:24.118Z,24.69
2019-04-30T19:47:50.506Z,24.65
2019-04-30T19:50:19.101Z,24.61
2019-04-30T19:52:43.213Z,24.62
2019-04-30T19:55:09.553Z,24.61
2019-04-30T19:57:35.937Z,24.56
2019-04-30T20:00:02.273Z,24.56
2019-04-30T20:02:29.454Z,24.48
2019-04-30T20:04:55.068Z,24.46
2019-04-30T20:07:21.469Z,24.45
2019-04-30T20:09:58.531Z,24.44
2019-04-30T20:12:14.169Z,24.43
2019-04-30T20:14:40.582Z,24.38
2019-04-30T20:17:08.808Z,24.36
2019-04-30T20:19:33.225Z,24.34
2019-04-30T20:21:59.687Z,24.32
2019-04-30T20:24:25.992Z,24.26
2019-04-30T20:27:04.223Z,24.26
2019-04-30T20:29:18.693Z,24.25
2019-04-30T20:31:45.026Z,24.23
2019-04-30T20:34:11.370Z,24.18
2019-04-30T20:39:04.104Z,24.15
2019-04-30T20:41:30.479Z,24.13
2019-04-30T20:43:56.841Z,24.09
2019-04-30T20:46:32.069Z,24.09
2019-04-30T20:48:49.534Z,24.06
2019-04-30T20:51:15.941Z,24.02
2019-04-30T20:53:42.393Z,24.03
2019-04-30T20:56:09.232Z,23.99
2019-04-30T21:01:06.323Z,23.97
2019-04-30T21:03:29.574Z,23.95
2019-04-30T21:05:54.123Z,23.90
2019-04-30T21:08:20.493Z,23.91
2019-04-30T21:10:46.847Z,23.87
2019-04-30T21:13:13.263Z,23.85
2019-04-30T21:15:39.629Z,23.85
2019-04-30T21:18:05.879Z,23.83
2019-04-30T21:20:32.215Z,23.81
2019-04-30T21:22:59.660Z,23.79
2019-04-30T21:25:24.982Z,23.79
2019-04-30T21:27:51.325Z,23.73
2019-04-30T21:30:17.681Z,23.73
2019-04-30T21:32:44.091Z,23.69
2019-04-30T21:35:10.445Z,23.68
2019-04-30T21:37:36.784Z,23.67
2019-04-30T21:40:03.139Z,23.65
2019-04-30T21:42:29.530Z,23.62
2019-04-30T21:44:55.964Z,23.60
2019-04-30T21:47:22.293Z,23.58
2019-04-30T21:49:48.665Z,23.56
2019-04-30T21:52:15.041Z,23.57
2019-04-30T21:57:07.750Z,23.53
2019-04-30T21:59:34.124Z,23.52
2019-04-30T22:02:00.455Z,23.49
2019-04-30T22:04:26.814Z,23.50
2019-04-30T22:06:53.225Z,23.47
2019-04-30T22:09:19.576Z,23.45
2019-04-30T22:11:45.953Z,23.42
2019-04-30T22:14:12.321Z,23.43
2019-04-30T22:16:39.826Z,23.39
2019-04-30T22:19:04.979Z,23.39
2019-04-30T22:21:31.379Z,23.37
2019-04-30T22:23:57.765Z,23.32
2019-04-30T22:26:24.148Z,23.36
2019-04-30T22:28:50.503Z,23.35
2019-04-30T22:31:16.850Z,23.31
2019-04-30T22:33:43.223Z,23.28
2019-04-30T22:36:10.880Z,23.27
2019-04-30T22:38:35.878Z,23.25
2019-04-30T22:41:02.241Z,23.25
2019-04-30T22:43:28.590Z,23.23
2019-04-30T22:45:54.972Z,23.22
2019-04-30T22:48:21.302Z,23.18
2019-04-30T22:53:13.958Z,23.13
2019-04-30T22:55:40.357Z,23.13
2019-04-30T22:58:06.676Z,23.12
2019-04-30T23:00:33.052Z,23.13
2019-04-30T23:02:59.446Z,23.09
2019-04-30T23:05:25.738Z,23.09
2019-04-30T23:07:52.071Z,23.10
2019-04-30T23:10:18.406Z,23.05
2019-04-30T23:12:44.735Z,23.03
2019-04-30T23:15:11.069Z,23.01
2019-04-30T23:17:37.444Z,23.01
2019-04-30T23:20:03.806Z,23.00
2019-04-30T23:22:30.136Z,22.99
2019-04-30T23:27:22.869Z,22.96
2019-04-30T23:29:49.195Z,22.95
2019-04-30T23:32:15.571Z,22.92
2019-04-30T23:34:41.912Z,22.95
2019-04-30T23:37:08.246Z,22.90
2019-04-30T23:39:34.628Z,22.86
2019-04-30T23:42:00.981Z,22.86
2019-04-30T23:44:27.417Z,22.84
2019-04-30T23:46:53.767Z,22.82
2019-04-30T23:49:20.140Z,22.83
2019-04-30T23:51:46.472Z,22.80
2019-04-30T23:54:12.826Z,22.79
2019-04-30T23:56:39.196Z,22.79
2019-04-30T23:59:05.652Z,22.78
